Time;durP1;ratioP1;P1;durP2;ratioP2;P2;SDS_P1;SDS_P2;PMS_P1;PMS_P2;Temp;Humidity;BMP_temperature;BMP_pressure;BME280_temperature;BME280_humidity;BME280_pressure;Samples;Min_cycle;Max_cycle;Signal;HPM_P1;HPM_P2
2021/12/13 00:02:20;;;;;;;96.03;56.40;;;14.30;75.00;;;;;;5187301;28;20049;-40
2021/12/13 00:05:11;;;;;;;108.13;61.80;;;14.20;75.00;;;;;;5186543;28;20112;-31
2021/12/13 00:07:44;;;;;;;83.53;49.73;;;14.20;75.00;;;;;;5185973;28;20408;-33
2021/12/13 00:10:17;;;;;;;71.55;41.42;;;14.20;75.10;;;;;;5186756;28;20395;-34
2021/12/13 00:12:58;;;;;;;59.00;36.57;;;14.30;74.90;;;;;;5185262;28;20050;-33
2021/12/13 00:15:32;;;;;;;59.20;36.57;;;14.30;74.90;;;;;;5184901;28;20069;-32
2021/12/13 00:18:06;;;;;;;68.30;41.27;;;14.40;75.10;;;;;;5186622;28;20475;-32
2021/12/13 00:20:41;;;;;;;92.53;55.97;;;14.50;75.40;;;;;;5186803;28;20113;-34
2021/12/13 00:23:16;;;;;;;64.03;41.30;;;14.70;75.30;;;;;;5168395;28;20086;-34
2021/12/13 00:25:49;;;;;;;58.00;37.13;;;13.60;75.40;;;;;;5186726;28;20105;-34
2021/12/13 00:28:20;;;;;;;90.53;52.22;;;11.90;79.10;;;;;;5186771;28;20050;-37
2021/12/13 00:31:10;;;;;;;84.90;47.33;;;10.90;81.40;;;;;;5200501;28;20133;-37
2021/12/13 00:33:48;;;;;;;87.17;47.47;;;10.40;83.30;;;;;;5204911;28;20205;-33
2021/12/13 00:36:29;;;;;;;;;;;10.00;84.10;;;;;;5205211;28;20491;-32
2021/12/13 00:39:08;;;;;;;96.00;47.80;;;9.80;84.60;;;;;;5204613;28;19920;-37
2021/12/13 00:41:41;;;;;;;106.00;54.87;;;9.70;85.30;;;;;;5204874;28;20042;-34
2021/12/13 00:44:19;;;;;;;43.22;26.52;;;9.60;86.10;;;;;;5204578;28;20782;-35
2021/12/13 00:46:51;;;;;;;54.80;31.03;;;9.50;86.20;;;;;;5203445;28;20052;-34
2021/12/13 00:49:25;;;;;;;38.73;24.37;;;9.40;86.30;;;;;;5204511;28;20073;-34
2021/12/13 00:51:59;;;;;;;41.20;24.43;;;9.40;86.30;;;;;;5204524;28;20103;-30
2021/12/13 00:54:32;;;;;;;44.83;30.50;;;9.30;86.60;;;;;;5203148;28;20453;-38
2021/12/13 00:57:03;;;;;;;51.43;35.10;;;9.20;86.80;;;;;;5204612;28;20048;-34
2021/12/13 00:59:40;;;;;;;38.27;25.27;;;9.20;87.20;;;;;;5204397;28;20053;-36
2021/12/13 01:02:16;;;;;;;95.37;65.87;;;9.10;87.20;;;;;;5206077;28;20124;-41
2021/12/13 01:05:16;;;;;;;39.77;23.20;;;9.10;87.40;;;;;;5208289;28;20041;-35
2021/12/13 01:08:12;;;;;;;33.43;20.90;;;9.00;87.50;;;;;;5208172;28;20072;-31
2021/12/13 01:11:17;;;;;;;41.67;23.77;;;8.90;87.60;;;;;;5207903;28;20042;-33
2021/12/13 01:14:01;;;;;;;39.43;23.40;;;8.80;87.90;;;;;;5208077;28;20033;-35
2021/12/13 01:17:05;;;;;;;32.27;20.33;;;8.80;88.10;;;;;;5193804;28;20049;-30
2021/12/13 01:19:51;;;;;;;32.17;19.05;;;8.70;87.90;;;;;;5207556;28;20056;-37
2021/12/13 01:25:45;;;;;;;33.10;19.05;;;8.60;88.30;;;;;;5202623;28;20049;-34
2021/12/13 01:28:36;;;;;;;32.77;20.70;;;8.60;88.50;;;;;;5204495;28;20049;-38
2021/12/13 01:31:16;;;;;;;51.90;30.47;;;8.50;88.40;;;;;;5207778;28;20069;-35
2021/12/13 01:33:47;;;;;;;47.27;27.80;;;8.60;88.80;;;;;;5207784;28;20038;-33
2021/12/13 01:36:24;;;;;;;42.00;24.53;;;8.50;88.70;;;;;;5188949;28;20057;-39
2021/12/13 01:38:58;;;;;;;38.27;23.83;;;8.90;88.90;;;;;;5201853;28;20046;-36
2021/12/13 01:41:35;;;;;;;46.03;28.23;;;9.50;87.70;;;;;;5204231;28;20514;-39
2021/12/13 01:44:17;;;;;;;41.33;25.23;;;10.10;86.10;;;;;;5197457;28;20495;-38
2021/12/13 01:46:54;;;;;;;41.97;24.83;;;10.60;84.50;;;;;;5204566;28;20041;-39
2021/12/13 01:49:28;;;;;;;44.03;26.17;;;11.00;83.20;;;;;;5207228;28;20053;-41
2021/12/13 01:51:59;;;;;;;47.07;28.03;;;11.30;82.10;;;;;;5207052;28;20113;-40
2021/12/13 01:54:30;;;;;;;49.17;28.57;;;11.60;81.30;;;;;;5207103;28;20071;-36
2021/12/13 02:00:18;;;;;;;52.80;31.17;;;12.00;80.20;;;;;;5205950;28;20484;-40
2021/12/13 02:02:52;;;;;;;54.00;31.38;;;12.20;79.60;;;;;;5143769;28;20190;-32
2021/12/13 02:05:25;;;;;;;54.47;30.43;;;12.40;79.80;;;;;;5143464;28;20046;-30
2021/12/13 02:07:56;;;;;;;;;;;12.40;78.90;;;;;;5143965;28;20071;-40
2021/12/13 02:10:29;;;;;;;49.80;30.73;;;12.60;78.60;;;;;;5143429;28;20030;-38
2021/12/13 02:13:06;;;;;;;53.83;31.43;;;12.70;78.20;;;;;;5143363;28;20130;-42
2021/12/13 02:18:35;;;;;;;52.03;33.27;;;13.10;77.40;;;;;;5143663;28;20061;-35
2021/12/13 02:21:18;;;;;;;53.03;33.43;;;13.30;77.00;;;;;;5096265;28;20113;-38
2021/12/13 02:23:51;;;;;;;53.40;35.55;;;13.50;76.60;;;;;;5127784;28;20054;-36
2021/12/13 02:26:26;;;;;;;54.20;34.15;;;13.60;76.20;;;;;;5143247;28;20421;-31
2021/12/13 02:29:15;;;;;;;50.07;34.40;;;13.70;76.00;;;;;;5112054;28;20054;-37
2021/12/13 02:31:46;;;;;;;52.83;33.57;;;13.80;75.80;;;;;;5127157;28;20543;-30
2021/12/13 02:34:17;;;;;;;48.93;32.20;;;13.80;75.40;;;;;;5143199;28;20054;-38
2021/12/13 02:36:51;;;;;;;52.77;32.80;;;13.90;75.40;;;;;;5127097;28;20046;-37
2021/12/13 02:39:24;;;;;;;46.73;32.03;;;13.90;75.20;;;;;;5135364;28;20062;-39
2021/12/13 02:41:55;;;;;;;53.08;33.58;;;13.90;75.20;;;;;;5204237;28;20376;-36
2021/12/13 02:44:30;;;;;;;50.47;33.60;;;14.00;75.10;;;;;;5200767;28;20133;-34
2021/12/13 02:47:01;;;;;;;50.60;32.57;;;14.00;75.00;;;;;;5204362;28;20175;-42
2021/12/13 02:49:33;;;;;;;54.67;33.43;;;14.00;74.70;;;;;;5200788;28;20113;-35
2021/12/13 02:52:06;;;;;;;48.83;32.47;;;14.00;74.70;;;;;;5203689;28;20045;-36
2021/12/13 02:54:40;;;;;;;50.75;31.30;;;14.00;74.50;;;;;;5205734;28;20050;-38
2021/12/13 02:57:24;;;;;;;55.30;35.30;;;14.00;74.50;;;;;;5187372;28;20057;-38
2021/12/13 02:59:59;;;;;;;49.87;31.63;;;14.00;74.50;;;;;;5200546;28;20149;-37
2021/12/13 03:02:38;;;;;;;53.47;34.13;;;14.00;75.00;;;;;;5200148;28;20169;-38
2021/12/13 03:05:14;;;;;;;53.13;32.47;;;14.00;74.40;;;;;;5197909;28;20055;-40
2021/12/13 03:07:48;;;;;;;55.93;34.03;;;14.00;74.30;;;;;;5205907;28;20091;-40
2021/12/13 03:10:24;;;;;;;53.50;33.93;;;14.00;74.30;;;;;;5200564;28;20124;-38
2021/12/13 03:12:55;;;;;;;50.17;31.40;;;14.00;74.30;;;;;;5201943;28;20116;-39
2021/12/13 03:15:28;;;;;;;50.97;31.50;;;14.00;74.20;;;;;;5205507;28;20104;-38
2021/12/13 03:18:15;;;;;;;53.05;32.35;;;14.00;74.20;;;;;;5205680;28;20050;-38
2021/12/13 03:21:17;;;;;;;51.27;32.13;;;14.00;74.20;;;;;;5184027;28;20480;-37
2021/12/13 03:24:07;;;;;;;49.13;30.13;;;14.00;74.10;;;;;;5204115;28;20467;-41
2021/12/13 03:27:13;;;;;;;55.53;34.80;;;14.00;74.10;;;;;;5205459;28;20091;-33
2021/12/13 03:30:00;;;;;;;54.60;34.93;;;14.00;74.10;;;;;;5162117;28;20050;-33
2021/12/13 03:32:35;;;;;;;56.20;37.00;;;14.00;74.10;;;;;;5162411;28;20125;-41
2021/12/13 03:35:06;;;;;;;56.97;35.17;;;14.00;74.10;;;;;;5162033;28;20113;-37
2021/12/13 03:37:38;;;;;;;51.50;35.00;;;14.00;74.10;;;;;;5162288;28;20514;-38
2021/12/13 03:40:14;;;;;;;59.83;37.87;;;14.00;74.00;;;;;;5162115;28;20058;-40
2021/12/13 03:42:53;;;;;;;57.40;36.10;;;14.00;74.10;;;;;;5162117;28;20085;-40
2021/12/13 03:45:28;;;;;;;55.50;34.40;;;14.00;74.20;;;;;;5162006;28;20049;-35
2021/12/13 03:47:59;;;;;;;55.27;34.40;;;14.00;74.20;;;;;;5162083;28;20054;-37
2021/12/13 03:50:34;;;;;;;57.00;34.30;;;14.00;74.30;;;;;;5161892;28;20162;-37
2021/12/13 03:53:11;;;;;;;55.00;34.60;;;14.00;74.30;;;;;;5161903;28;20121;-41
2021/12/13 03:55:45;;;;;;;54.03;34.20;;;14.00;74.30;;;;;;5129805;28;20092;-38
2021/12/13 03:58:18;;;;;;;58.90;35.13;;;13.90;74.30;;;;;;5161987;28;20490;-32
2021/12/13 04:00:57;;;;;;;57.50;37.22;;;13.90;74.30;;;;;;5161564;28;20086;-38
2021/12/13 04:03:28;;;;;;;61.23;37.57;;;13.90;74.20;;;;;;5161784;28;20077;-36
2021/12/13 04:05:59;;;;;;;68.27;42.77;;;13.90;74.30;;;;;;5171490;28;20490;-38
2021/12/13 04:08:31;;;;;;;60.43;39.80;;;13.90;74.30;;;;;;5199541;28;20128;-39
2021/12/13 04:11:05;;;;;;;64.40;39.67;;;13.90;74.20;;;;;;5200601;28;20053;-36
2021/12/13 04:13:52;;;;;;;55.77;36.47;;;13.90;74.10;;;;;;5204763;28;20120;-38
2021/12/13 04:16:35;;;;;;;51.97;33.67;;;13.90;74.10;;;;;;5202395;28;20820;-37
2021/12/13 04:19:08;;;;;;;39.58;28.67;;;13.90;74.10;;;;;;5198923;28;20140;-38
2021/12/13 04:21:42;;;;;;;37.97;26.67;;;13.90;74.00;;;;;;5204221;28;20108;-36
2021/12/13 04:24:28;;;;;;;41.00;25.97;;;13.90;74.10;;;;;;5204651;28;20484;-39
2021/12/13 04:27:25;;;;;;;34.90;24.30;;;13.90;74.00;;;;;;5204922;28;20127;-41
2021/12/13 04:29:59;;;;;;;34.87;23.73;;;13.90;74.00;;;;;;5204747;28;20037;-35
2021/12/13 04:32:38;;;;;;;32.97;22.27;;;13.90;73.90;;;;;;5204590;28;20074;-35
2021/12/13 04:35:10;;;;;;;35.53;24.30;;;13.90;74.00;;;;;;5199403;28;20495;-36
2021/12/13 04:37:47;;;;;;;33.23;24.03;;;13.90;73.90;;;;;;5198822;28;20042;-38
2021/12/13 04:40:24;;;;;;;32.87;21.80;;;13.90;74.00;;;;;;5186975;28;20038;-40
2021/12/13 04:43:15;;;;;;;30.57;21.33;;;13.90;74.00;;;;;;5200880;28;20049;-39
2021/12/13 04:45:49;;;;;;;29.67;20.57;;;13.90;73.80;;;;;;5208561;28;20049;-37
2021/12/13 04:48:20;;;;;;;;;;;13.90;73.80;;;;;;5208895;28;20046;-33
2021/12/13 04:50:55;;;;;;;29.07;19.93;;;13.90;73.80;;;;;;5208570;28;19925;-42
2021/12/13 04:53:32;;;;;;;31.73;25.47;;;13.90;73.80;;;;;;5208117;28;20452;-39
2021/12/13 04:56:07;;;;;;;31.37;22.10;;;13.90;73.90;;;;;;5202536;28;20057;-33
2021/12/13 04:58:38;;;;;;;31.37;22.50;;;13.90;73.90;;;;;;5204056;28;20045;-37
2021/12/13 05:01:11;;;;;;;31.37;22.00;;;13.80;73.90;;;;;;5208304;28;20108;-33
2021/12/13 05:03:45;;;;;;;35.63;24.10;;;13.90;74.00;;;;;;5207962;28;20486;-41
2021/12/13 05:06:19;;;;;;;34.90;25.53;;;13.80;74.00;;;;;;5208140;28;20045;-32
2021/12/13 05:08:53;;;;;;;38.23;25.60;;;13.90;74.10;;;;;;5208311;28;20124;-38
2021/12/13 05:11:38;;;;;;;42.47;27.93;;;13.80;74.00;;;;;;5207980;28;20400;-35
2021/12/13 05:14:09;;;;;;;36.33;24.57;;;13.80;74.20;;;;;;5202883;28;20081;-39
2021/12/13 05:16:52;;;;;;;37.90;25.50;;;13.80;74.60;;;;;;5208229;28;20049;-37
2021/12/13 05:19:29;;;;;;;33.43;22.57;;;13.80;74.90;;;;;;5208017;28;20045;-38
2021/12/13 05:22:01;;;;;;;48.77;33.30;;;13.80;74.80;;;;;;5207969;28;20192;-41
2021/12/13 05:24:34;;;;;;;43.27;33.93;;;13.80;74.60;;;;;;5203895;28;20108;-37
2021/12/13 05:27:10;;;;;;;48.45;35.50;;;13.80;74.20;;;;;;5207660;28;20112;-37
2021/12/13 05:29:46;;;;;;;45.23;31.80;;;13.70;74.20;;;;;;5207795;28;20050;-37
2021/12/13 05:32:22;;;;;;;37.60;28.13;;;13.70;74.70;;;;;;5207493;28;20076;-36
2021/12/13 05:34:56;;;;;;;34.97;25.80;;;13.70;74.40;;;;;;5204528;28;20046;-34
2021/12/13 05:37:39;;;;;;;38.07;26.30;;;13.70;74.40;;;;;;5207832;28;20475;-39
2021/12/13 05:40:19;;;;;;;37.60;28.77;;;13.70;74.40;;;;;;5207581;28;20041;-33
2021/12/13 05:42:52;;;;;;;38.97;27.33;;;13.70;74.50;;;;;;5207531;28;20049;-39
2021/12/13 05:46:01;;;;;;;35.55;25.30;;;13.70;74.60;;;;;;5206623;28;20148;-39
2021/12/13 05:48:35;;;;;;;39.03;26.37;;;13.70;74.70;;;;;;5197999;28;20061;-37
2021/12/13 05:51:17;;;;;;;34.43;25.07;;;13.70;74.80;;;;;;5207164;28;20041;-38
2021/12/13 05:54:03;;;;;;;36.00;24.37;;;13.60;74.90;;;;;;5206821;28;20565;-38
2021/12/13 05:56:43;;;;;;;41.73;29.57;;;13.60;74.80;;;;;;5207152;28;20057;-37
2021/12/13 05:59:31;;;;;;;43.57;32.27;;;13.60;74.80;;;;;;5203809;28;20068;-36
2021/12/13 06:02:16;;;;;;;40.17;28.43;;;13.60;74.90;;;;;;5206714;28;20124;-36
2021/12/13 06:04:56;;;;;;;40.83;29.30;;;13.60;74.90;;;;;;5191841;28;20057;-41
2021/12/13 06:07:35;;;;;;;40.23;26.53;;;13.60;75.10;;;;;;5202723;28;20377;-38
2021/12/13 06:10:13;;;;;;;42.63;28.73;;;13.60;75.10;;;;;;5206765;28;20123;-36
2021/12/13 06:12:54;;;;;;;38.27;27.50;;;13.60;75.10;;;;;;5206642;28;20513;-42
2021/12/13 06:15:30;;;;;;;39.70;26.50;;;13.70;75.00;;;;;;5206894;28;20064;-34
2021/12/13 06:18:03;;;;;;;40.27;26.60;;;13.70;75.10;;;;;;5206851;28;20134;-37
2021/12/13 06:20:41;;;;;;;43.67;29.23;;;13.70;75.10;;;;;;5206714;28;20065;-37
2021/12/13 06:23:16;;;;;;;40.40;28.30;;;13.70;75.10;;;;;;5192622;28;20056;-33
2021/12/13 06:25:49;;;;;;;39.93;26.73;;;13.70;75.20;;;;;;5206899;28;20041;-32
2021/12/13 06:28:26;;;;;;;39.97;27.63;;;13.70;75.10;;;;;;5206613;28;20033;-35
2021/12/13 06:30:59;;;;;;;41.60;28.60;;;13.80;75.00;;;;;;5192952;28;20046;-33
2021/12/13 06:33:56;;;;;;;40.70;27.08;;;13.90;75.10;;;;;;5205206;28;20046;-34
2021/12/13 06:37:00;;;;;;;41.00;28.80;;;14.10;74.90;;;;;;5200986;28;20053;-35
2021/12/13 06:39:32;;;;;;;38.37;27.17;;;14.20;74.70;;;;;;5197164;28;20065;-35
2021/12/13 06:42:04;;;;;;;38.07;26.57;;;14.30;74.40;;;;;;5200786;28;20124;-38
2021/12/13 06:44:37;;;;;;;43.25;28.05;;;14.40;75.40;;;;;;5198575;28;20103;-39
2021/12/13 06:47:23;;;;;;;44.15;29.17;;;14.40;74.20;;;;;;5200334;28;20558;-35
2021/12/13 06:49:57;;;;;;;49.20;30.47;;;14.50;74.20;;;;;;5181548;28;20056;-33
2021/12/13 06:52:32;;;;;;;55.27;36.57;;;14.50;74.20;;;;;;5205296;28;20072;-35
2021/12/13 06:55:11;;;;;;;72.80;55.30;;;14.50;74.30;;;;;;5203060;28;20037;-36
2021/12/13 06:57:49;;;;;;;61.67;43.73;;;14.50;74.40;;;;;;5193497;28;20045;-38
2021/12/13 07:00:28;;;;;;;61.27;40.03;;;14.40;74.30;;;;;;5203521;28;20053;-35
2021/12/13 07:03:09;;;;;;;71.00;48.03;;;14.40;74.50;;;;;;5206058;28;20084;-37
2021/12/13 07:06:01;;;;;;;56.80;36.60;;;14.40;74.50;;;;;;5204689;28;20056;-34
2021/12/13 07:08:36;;;;;;;68.40;45.60;;;14.40;75.00;;;;;;5205586;28;20450;-35
2021/12/13 07:11:12;;;;;;;71.47;48.03;;;14.40;74.60;;;;;;5207557;28;20041;-34
2021/12/13 07:13:48;;;;;;;85.13;57.87;;;14.40;74.60;;;;;;5208352;28;20045;-34
2021/12/13 07:16:24;;;;;;;89.20;58.07;;;14.40;74.50;;;;;;5206882;28;20049;-38
2021/12/13 07:19:11;;;;;;;55.40;37.67;;;13.30;74.90;;;;;;5207856;28;20049;-39
2021/12/13 07:21:55;;;;;;;66.87;41.60;;;11.40;79.10;;;;;;5207221;28;20057;-37
2021/12/13 07:24:42;;;;;;;;;;;10.50;82.20;;;;;;5208203;28;20041;-36
2021/12/13 07:27:18;;;;;;;65.77;42.00;;;10.00;83.60;;;;;;5196879;28;19944;-35
2021/12/13 07:29:55;;;;;;;55.10;34.90;;;9.70;84.60;;;;;;5194119;28;20045;-38
2021/12/13 07:32:31;;;;;;;56.37;32.77;;;9.50;85.20;;;;;;5206402;28;20049;-34
2021/12/13 07:35:12;;;;;;;47.03;31.23;;;9.30;85.50;;;;;;5207522;28;20098;-35
2021/12/13 07:37:57;;;;;;;44.40;30.10;;;9.20;86.20;;;;;;5207753;28;20391;-33
2021/12/13 07:40:51;;;;;;;42.77;29.50;;;9.20;86.20;;;;;;5207459;28;20384;-38
2021/12/13 07:43:29;;;;;;;50.87;34.97;;;9.20;86.60;;;;;;5206393;28;20164;-37
2021/12/13 07:46:20;;;;;;;48.37;32.53;;;9.20;86.60;;;;;;5207712;28;20041;-36
2021/12/13 07:49:00;;;;;;;44.73;29.50;;;9.10;87.00;;;;;;5207467;28;20042;-32
2021/12/13 07:51:37;;;;;;;44.27;29.40;;;9.10;86.90;;;;;;5207047;28;20045;-35
2021/12/13 07:54:13;;;;;;;434.97;203.70;;;9.10;86.70;;;;;;5207043;28;20042;-39
2021/12/13 07:56:59;;;;;;;152.13;79.87;;;9.00;86.90;;;;;;5207234;28;20120;-32
2021/12/13 07:59:36;;;;;;;118.60;65.10;;;9.00;87.40;;;;;;5207214;28;20048;-38
2021/12/13 08:02:31;;;;;;;51.47;33.77;;;9.50;87.20;;;;;;5222622;28;20132;-38
2021/12/13 08:05:12;;;;;;;61.77;45.93;;;10.30;85.50;;;;;;5207171;28;20076;-35
2021/12/13 08:08:15;;;;;;;63.27;51.70;;;10.80;84.00;;;;;;5189929;28;20115;-40
2021/12/13 08:10:47;;;;;;;54.33;47.13;;;11.40;82.60;;;;;;5208144;28;20049;-40
2021/12/13 08:13:21;;;;;;;70.23;46.50;;;11.70;81.80;;;;;;5210163;28;20451;-39
2021/12/13 08:15:54;;;;;;;52.97;34.57;;;12.00;81.20;;;;;;5210159;28;20071;-40
2021/12/13 08:18:32;;;;;;;63.38;40.85;;;12.20;80.60;;;;;;5211499;28;20531;-35
2021/12/13 08:21:05;;;;;;;61.03;38.50;;;12.40;80.20;;;;;;5211741;28;20041;-33
2021/12/13 08:23:44;;;;;;;58.73;37.73;;;12.60;79.80;;;;;;5210394;28;20443;-35
2021/12/13 08:26:45;;;;;;;73.83;47.07;;;12.70;79.40;;;;;;5209890;28;20128;-33
2021/12/13 08:29:17;;;;;;;93.47;59.23;;;12.90;79.70;;;;;;5202405;28;20049;-43
2021/12/13 08:31:51;;;;;;;73.77;48.03;;;13.00;78.80;;;;;;5209987;28;20057;-37
2021/12/13 08:34:37;;;;;;;92.03;59.33;;;13.00;78.70;;;;;;5210895;28;20376;-34
2021/12/13 08:37:17;;;;;;;69.50;46.10;;;13.10;78.50;;;;;;5211299;28;20098;-36
2021/12/13 08:39:52;;;;;;;67.73;47.00;;;13.20;78.50;;;;;;5210737;28;20041;-38
2021/12/13 08:42:25;;;;;;;65.80;45.10;;;13.20;78.40;;;;;;5209753;28;20074;-38
2021/12/13 08:45:38;;;;;;;66.73;45.63;;;13.20;78.20;;;;;;5209763;28;20045;-42
2021/12/13 08:48:16;;;;;;;61.37;42.50;;;13.30;78.40;;;;;;5205412;28;20041;-41
2021/12/13 08:50:53;;;;;;;68.53;48.47;;;13.40;78.10;;;;;;5209222;28;20103;-42
2021/12/13 08:53:35;;;;;;;76.27;52.93;;;13.40;78.10;;;;;;5210877;28;20049;-42
2021/12/13 08:56:12;;;;;;;63.17;47.20;;;13.20;77.30;;;;;;5225670;28;20072;-33
2021/12/13 08:59:01;;;;;;;68.43;47.33;;;11.40;80.80;;;;;;5209498;28;20056;-38
2021/12/13 09:01:44;;;;;;;50.93;35.03;;;10.30;83.70;;;;;;5209122;28;20080;-38
2021/12/13 09:04:23;;;;;;;76.20;46.70;;;9.80;85.30;;;;;;5210630;28;20384;-41
2021/12/13 09:06:56;;;;;;;70.23;40.53;;;9.50;86.10;;;;;;5210557;28;20232;-39
2021/12/13 09:09:27;;;;;;;81.88;46.10;;;9.30;86.80;;;;;;5210235;28;20050;-37
2021/12/13 09:12:04;;;;;;;135.60;75.80;;;9.20;87.50;;;;;;5210105;28;20507;-38
2021/12/13 09:14:36;;;;;;;101.07;58.17;;;9.10;87.40;;;;;;5209695;28;20038;-38
2021/12/13 09:17:25;;;;;;;81.65;50.53;;;9.10;88.20;;;;;;5210132;28;20076;-36
2021/12/13 09:20:05;;;;;;;87.43;53.53;;;9.00;87.70;;;;;;5170704;28;20512;-39
2021/12/13 09:22:43;;;;;;;60.07;38.90;;;8.90;88.10;;;;;;5186472;28;20057;-39
2021/12/13 09:25:39;;;;;;;66.93;42.00;;;8.90;87.70;;;;;;5171377;28;20427;-37
2021/12/13 09:28:19;;;;;;;68.70;43.33;;;9.20;88.00;;;;;;5187277;28;20574;-34
2021/12/13 09:30:56;;;;;;;70.87;43.63;;;9.90;86.90;;;;;;5187340;28;20057;-33
2021/12/13 09:33:36;;;;;;;62.03;41.20;;;10.50;85.50;;;;;;5187349;28;20046;-37
2021/12/13 09:36:13;;;;;;;59.13;38.33;;;11.00;84.20;;;;;;5187154;28;20050;-39
2021/12/13 09:39:04;;;;;;;56.77;38.50;;;11.40;83.30;;;;;;5186976;28;20057;-41
2021/12/13 09:42:02;;;;;;;57.93;39.40;;;11.70;82.20;;;;;;5187585;28;20373;-34
2021/12/13 09:44:44;;;;;;;50.97;37.03;;;12.10;81.50;;;;;;5187211;28;20073;-40
2021/12/13 09:47:20;;;;;;;59.20;39.93;;;12.30;80.80;;;;;;5186141;28;20050;-31
2021/12/13 09:49:58;;;;;;;54.83;38.97;;;12.60;80.00;;;;;;5173670;28;20057;-36
2021/12/13 09:52:30;;;;;;;57.97;39.93;;;12.80;79.50;;;;;;5209549;28;20053;-40
2021/12/13 09:55:47;;;;;;;89.90;61.70;;;13.00;79.10;;;;;;5209359;28;20487;-40
2021/12/13 09:58:47;;;;;;;105.60;69.13;;;13.20;78.70;;;;;;5166280;28;20152;-37
2021/12/13 10:01:26;;;;;;;127.37;86.33;;;13.30;78.20;;;;;;5152075;28;20050;-37
2021/12/13 10:04:28;;;;;;;110.00;76.53;;;13.40;77.90;;;;;;5146192;28;20154;-38
2021/12/13 10:07:04;;;;;;;130.83;87.83;;;13.50;77.90;;;;;;5130013;28;20110;-39
2021/12/13 10:09:44;;;;;;;88.63;60.60;;;13.60;77.80;;;;;;5146508;28;20077;-36
2021/12/13 10:12:25;;;;;;;76.83;53.47;;;13.60;77.70;;;;;;5146108;28;20398;-34
2021/12/13 10:15:06;;;;;;;77.80;54.87;;;13.70;77.70;;;;;;5129768;28;20055;-32
2021/12/13 10:21:16;;;;;;;110.70;80.35;;;13.80;77.50;;;;;;5098033;29;20417;-41
2021/12/13 10:24:06;;;;;;;87.63;61.60;;;13.80;77.60;;;;;;5069192;29;20396;-36
2021/12/13 10:26:51;;;;;;;78.60;55.90;;;13.80;77.40;;;;;;5086492;29;20061;-40
2021/12/13 10:29:53;;;;;;;72.27;51.93;;;13.90;77.30;;;;;;5113206;29;20047;-38
2021/12/13 10:32:26;;;;;;;90.03;61.30;;;13.90;77.10;;;;;;5125822;29;20051;-38
2021/12/13 10:35:02;;;;;;;87.00;61.03;;;13.80;76.90;;;;;;5124599;28;20063;-40
2021/12/13 10:37:37;;;;;;;77.03;51.17;;;13.90;76.80;;;;;;5110519;29;20054;-37
2021/12/13 10:40:23;;;;;;;74.77;49.67;;;13.80;76.70;;;;;;5109741;29;20047;-39
2021/12/13 10:43:20;;;;;;;72.50;47.50;;;13.90;76.50;;;;;;5096171;29;20114;-33
2021/12/13 10:46:14;;;;;;;76.13;51.10;;;13.90;76.40;;;;;;5125537;29;20049;-33
2021/12/13 10:48:56;;;;;;;78.03;53.07;;;13.80;76.20;;;;;;5111025;29;20059;-36
2021/12/13 10:51:33;;;;;;;86.73;59.03;;;13.90;76.40;;;;;;5125316;29;20074;-39
2021/12/13 10:54:14;;;;;;;98.63;66.13;;;13.90;76.90;;;;;;5109118;29;20089;-37
2021/12/13 10:56:51;;;;;;;95.00;62.53;;;13.90;76.80;;;;;;5109817;29;20539;-35
2021/12/13 10:59:24;;;;;;;89.53;62.27;;;13.90;76.80;;;;;;5125873;29;20386;-35
2021/12/13 11:02:01;;;;;;;91.07;62.80;;;13.90;77.00;;;;;;5143814;28;20051;-43
2021/12/13 11:04:36;;;;;;;95.13;68.20;;;13.80;77.20;;;;;;5161840;28;20053;-37
2021/12/13 11:07:12;;;;;;;97.43;65.50;;;13.80;77.30;;;;;;5207307;28;20510;-40
2021/12/13 11:09:44;;;;;;;83.40;55.10;;;13.80;77.40;;;;;;5223164;28;20059;-35
2021/12/13 11:12:18;;;;;;;78.23;54.07;;;13.80;77.60;;;;;;5206914;28;20041;-40
2021/12/13 11:14:51;;;;;;;79.33;52.47;;;13.80;77.60;;;;;;5207211;28;20045;-38
2021/12/13 11:17:24;;;;;;;78.65;53.00;;;13.70;77.50;;;;;;5206501;28;20041;-41
2021/12/13 11:20:20;;;;;;;84.13;56.30;;;13.70;77.50;;;;;;5204224;28;20495;-39
2021/12/13 11:22:55;;;;;;;82.10;58.47;;;13.70;77.60;;;;;;5195308;28;20037;-39
2021/12/13 11:25:40;;;;;;;81.20;56.13;;;13.70;77.50;;;;;;5205589;28;20696;-36
2021/12/13 11:28:25;;;;;;;91.87;61.80;;;13.70;77.50;;;;;;5204410;28;20051;-37
2021/12/13 11:31:15;;;;;;;99.60;64.37;;;13.70;77.50;;;;;;5205321;28;20123;-40
2021/12/13 11:34:02;;;;;;;130.70;82.40;;;13.70;77.50;;;;;;5204407;28;20037;-41
2021/12/13 11:37:07;;;;;;;103.97;65.67;;;13.70;77.40;;;;;;5205203;28;20063;-31
2021/12/13 11:39:51;;;;;;;108.47;70.57;;;13.70;77.50;;;;;;5184874;28;20550;-41
2021/12/13 11:42:54;;;;;;;97.03;64.40;;;13.70;77.60;;;;;;5201252;28;20392;-36
2021/12/13 11:45:55;;;;;;;;;;;13.70;77.50;;;;;;5190668;28;20453;-34
2021/12/13 11:49:14;;;;;;;83.33;54.27;;;13.70;77.60;;;;;;5161880;28;19933;-39
2021/12/13 11:51:57;;;;;;;115.97;80.40;;;13.70;77.60;;;;;;5112138;29;20069;-39
2021/12/13 11:55:08;;;;;;;89.60;60.97;;;13.70;77.60;;;;;;5121774;29;20051;-39
2021/12/13 11:58:16;;;;;;;79.43;54.27;;;13.60;77.50;;;;;;5121889;29;20062;-39
2021/12/13 12:01:04;;;;;;;97.63;70.13;;;13.60;77.60;;;;;;5121520;28;20094;-39
2021/12/13 12:04:19;;;;;;;125.57;85.27;;;13.60;77.70;;;;;;5121950;29;20048;-38
2021/12/13 12:07:15;;;;;;;117.17;76.60;;;13.60;77.70;;;;;;5121585;28;20051;-37
2021/12/13 12:10:07;;;;;;;221.93;139.03;;;13.60;77.50;;;;;;5121880;29;20051;-41
2021/12/13 12:12:57;;;;;;;169.77;122.80;;;13.60;77.50;;;;;;5121800;29;20063;-36
2021/12/13 12:15:36;;;;;;;140.67;104.17;;;13.60;77.50;;;;;;5121542;29;20187;-39
2021/12/13 12:18:10;;;;;;;100.95;67.20;;;13.60;77.40;;;;;;5121880;29;20051;-39
2021/12/13 12:20:45;;;;;;;113.80;75.27;;;13.60;77.20;;;;;;5121769;29;20105;-39
2021/12/13 12:23:29;;;;;;;122.83;81.60;;;13.60;76.90;;;;;;5121558;29;20130;-41
2021/12/13 12:26:03;;;;;;;121.60;81.93;;;13.60;76.60;;;;;;5089609;29;20075;-39
2021/12/13 12:28:52;;;;;;;116.50;76.10;;;13.60;76.50;;;;;;5118363;28;20408;-39
2021/12/13 12:31:40;;;;;;;176.77;118.87;;;13.60;76.70;;;;;;5149659;28;20050;-37
2021/12/13 12:34:11;;;;;;;148.20;94.63;;;13.60;76.80;;;;;;5162872;28;20060;-39
2021/12/13 12:36:47;;;;;;;124.90;83.40;;;13.60;77.00;;;;;;5164075;28;20381;-34
2021/12/13 12:39:40;;;;;;;127.43;89.17;;;13.60;77.00;;;;;;5163874;28;20480;-39
2021/12/13 12:42:28;;;;;;;102.17;72.33;;;13.60;76.50;;;;;;5162591;28;20050;-39
2021/12/13 12:45:04;;;;;;;100.87;69.60;;;13.60;76.50;;;;;;5163130;28;20116;-39
2021/12/13 12:47:35;;;;;;;94.53;66.03;;;13.70;76.70;;;;;;5161065;28;20057;-34
2021/12/13 12:50:17;;;;;;;101.43;69.67;;;13.60;76.70;;;;;;5164043;28;20042;-37
2021/12/13 12:53:05;;;;;;;107.73;70.07;;;13.60;76.80;;;;;;5163809;28;20039;-36
2021/12/13 12:56:14;;;;;;;95.73;62.93;;;13.60;77.20;;;;;;5163959;28;20851;-38
2021/12/13 12:58:51;;;;;;;105.27;65.77;;;13.60;77.00;;;;;;5158203;28;20046;-36
2021/12/13 13:01:34;;;;;;;99.95;68.28;;;13.60;77.10;;;;;;5192421;28;20407;-39
2021/12/13 13:07:28;;;;;;;115.13;78.30;;;13.60;77.10;;;;;;5187891;28;20076;-40
2021/12/13 13:10:24;;;;;;;109.43;72.63;;;13.60;76.80;;;;;;5207937;28;20048;-38
2021/12/13 13:13:06;;;;;;;101.87;69.43;;;13.60;76.70;;;;;;5194248;28;20046;-38
2021/12/13 13:15:55;;;;;;;105.50;74.10;;;13.60;76.50;;;;;;5200267;28;20045;-41
2021/12/13 13:18:29;;;;;;;108.47;74.10;;;13.60;76.50;;;;;;5200505;28;20518;-40
2021/12/13 13:21:02;;;;;;;;;;;13.60;76.60;;;;;;5208595;28;20116;-41
2021/12/13 13:23:42;;;;;;;118.05;76.57;;;13.60;76.50;;;;;;5207854;28;20393;-36
2021/12/13 13:26:13;;;;;;;120.60;82.47;;;13.60;76.50;;;;;;5208163;28;20073;-37
2021/12/13 13:28:51;;;;;;;112.87;75.33;;;13.60;76.40;;;;;;5203681;28;20053;-37
2021/12/13 13:31:38;;;;;;;115.57;81.73;;;13.60;76.40;;;;;;5207866;28;20037;-35
2021/12/13 13:34:13;;;;;;;119.17;80.97;;;13.60;76.20;;;;;;5206624;28;20041;-37
2021/12/13 13:36:50;;;;;;;116.93;80.77;;;13.60;76.30;;;;;;5207818;28;20514;-39
2021/12/13 13:39:28;;;;;;;114.17;79.57;;;13.60;76.30;;;;;;5207703;28;20037;-34
2021/12/13 13:42:17;;;;;;;123.73;89.57;;;13.60;77.20;;;;;;5207288;28;20041;-40
2021/12/13 13:45:16;;;;;;;106.17;74.43;;;13.60;77.30;;;;;;5222603;28;20538;-38
2021/12/13 13:48:03;;;;;;;108.63;73.63;;;13.60;77.30;;;;;;5207493;28;20061;-40
2021/12/13 13:50:38;;;;;;;118.33;77.83;;;13.70;77.00;;;;;;5207434;28;20495;-36
2021/12/13 13:53:22;;;;;;;119.70;83.83;;;13.80;76.70;;;;;;5206999;28;20502;-37